createdAt,value
2023-02-22T00:00:40.571Z,7.72
2023-02-22T00:05:47.004Z,7.69
2023-02-22T00:10:51.444Z,7.77
2023-02-22T00:15:54.252Z,7.75
2023-02-22T00:20:59.904Z,7.80
2023-02-22T00:26:04.107Z,7.82
2023-02-22T00:31:09.486Z,7.81
2023-02-22T00:36:13.620Z,7.84
2023-02-22T00:41:18.140Z,7.78
2023-02-22T00:46:21.142Z,7.85
2023-02-22T00:51:26.714Z,7.87
2023-02-22T00:56:30.987Z,7.83
2023-02-22T01:01:34.892Z,7.80
2023-02-22T01:06:37.845Z,7.75
2023-02-22T01:11:42.307Z,7.68
2023-02-22T01:16:45.462Z,7.63
2023-02-22T01:21:48.956Z,7.50
2023-02-22T01:26:54.057Z,7.40
2023-02-22T01:31:57.508Z,7.30
2023-02-22T01:37:01.436Z,7.24
2023-02-22T01:42:05.627Z,7.16
2023-02-22T01:47:09.821Z,7.15
2023-02-22T01:52:18.453Z,7.17
2023-02-22T01:57:29.829Z,7.04
2023-02-22T02:02:33.032Z,6.91
2023-02-22T02:07:38.440Z,6.78
2023-02-22T02:12:45.060Z,6.70
2023-02-22T02:17:49.348Z,6.61
2023-02-22T02:23:01.865Z,6.52
2023-02-22T02:28:40.812Z,6.47
2023-02-22T02:33:50.913Z,6.42
2023-02-22T02:38:59.059Z,6.34
2023-02-22T02:44:05.773Z,6.26
2023-02-22T02:49:18.750Z,6.10
2023-02-22T02:54:22.852Z,6.09
2023-02-22T02:59:31.132Z,6.04
2023-02-22T03:04:54.325Z,6.00
2023-02-22T03:10:13.213Z,5.94
2023-02-22T03:15:29.592Z,5.95
2023-02-22T03:20:43.955Z,6.01
2023-02-22T03:25:52.299Z,6.03
2023-02-22T03:31:00.912Z,5.92
2023-02-22T03:36:13.003Z,5.91
2023-02-22T03:41:19.778Z,5.91
2023-02-22T03:46:24.674Z,5.89
2023-02-22T03:51:29.159Z,5.86
2023-02-22T03:56:47.109Z,5.82
2023-02-22T04:01:51.090Z,5.79
2023-02-22T04:06:56.107Z,5.76
2023-02-22T04:11:59.528Z,5.81
2023-02-22T04:17:03.616Z,5.83
2023-02-22T04:22:08.673Z,5.80
2023-02-22T04:27:11.778Z,5.76
2023-02-22T04:32:16.751Z,5.78
2023-02-22T04:37:21.179Z,5.77
2023-02-22T04:42:24.354Z,5.75
2023-02-22T04:47:28.793Z,5.70
2023-02-22T04:52:33.011Z,5.67
2023-02-22T04:57:36.300Z,5.65
2023-02-22T05:02:39.979Z,5.62
2023-02-22T05:07:44.218Z,5.60
2023-02-22T05:12:47.401Z,5.60
2023-02-22T05:17:50.580Z,5.61
2023-02-22T05:22:54.699Z,5.60
2023-02-22T05:27:59.003Z,5.66
2023-02-22T05:33:02.346Z,5.69
2023-02-22T05:38:07.276Z,5.71
2023-02-22T05:43:10.567Z,5.68
2023-02-22T05:48:13.546Z,5.65
2023-02-22T05:53:17.791Z,5.65
2023-02-22T05:58:20.568Z,5.79
2023-02-22T06:03:23.328Z,5.72
2023-02-22T06:08:27.457Z,5.77
2023-02-22T06:13:30.931Z,5.81
2023-02-22T06:18:33.863Z,5.78
2023-02-22T06:23:38.008Z,5.84
2023-02-22T06:28:40.725Z,5.80
2023-02-22T06:33:43.474Z,5.76
2023-02-22T06:38:47.558Z,5.78
2023-02-22T06:43:50.322Z,5.88
2023-02-22T06:48:53.064Z,5.94
2023-02-22T06:53:57.294Z,6.02
2023-02-22T06:59:02.852Z,6.24
2023-02-22T07:04:05.710Z,6.49
2023-02-22T07:09:10.387Z,6.61
2023-02-22T07:14:13.095Z,6.82
2023-02-22T07:19:15.913Z,6.91
2023-02-22T07:24:20.014Z,7.17
2023-02-22T07:29:23.506Z,7.22
2023-02-22T07:34:26.297Z,7.16
2023-02-22T07:39:30.453Z,7.33
2023-02-22T07:44:33.193Z,7.68
2023-02-22T07:49:35.952Z,7.80
2023-02-22T07:54:40.065Z,7.76
2023-02-22T07:59:42.818Z,7.69
2023-02-22T08:04:45.543Z,7.98
2023-02-22T08:09:49.690Z,8.28
2023-02-22T08:14:52.567Z,8.54
2023-02-22T08:19:55.389Z,8.58
2023-02-22T08:24:59.588Z,8.86
2023-02-22T08:30:02.414Z,8.80
2023-02-22T08:35:05.877Z,9.09
2023-02-22T08:40:11.875Z,9.42
2023-02-22T08:45:16.791Z,9.97
2023-02-22T08:50:21.832Z,10.31
2023-02-22T08:55:28.161Z,10.57
2023-02-22T09:00:33.081Z,10.72
2023-02-22T09:05:36.346Z,11.09
2023-02-22T09:16:11.538Z,11.23
2023-02-22T09:21:14.714Z,11.12
2023-02-22T09:26:17.576Z,11.49
2023-02-22T09:31:22.261Z,11.51
2023-02-22T09:36:26.216Z,12.09
2023-02-22T09:41:36.507Z,12.59
2023-02-22T09:46:45.666Z,12.36
2023-02-22T09:51:53.223Z,12.62
2023-02-22T09:56:59.273Z,12.41
2023-02-22T10:02:14.307Z,12.51
2023-02-22T10:07:21.327Z,12.80
2023-02-22T10:12:35.787Z,13.12
2023-02-22T10:17:50.246Z,13.55
2023-02-22T10:23:12.068Z,13.47
2023-02-22T10:28:20.492Z,13.28
2023-02-22T10:33:28.079Z,13.43
2023-02-22T10:38:32.987Z,13.78
2023-02-22T10:43:41.139Z,13.84
2023-02-22T10:48:50.820Z,13.87
2023-02-22T10:54:20.739Z,14.67
2023-02-22T10:59:32.782Z,14.83
2023-02-22T11:04:49.577Z,15.11
2023-02-22T11:09:55.194Z,15.37
2023-02-22T11:14:58.111Z,15.51
2023-02-22T11:20:02.388Z,15.47
2023-02-22T11:25:07.762Z,15.90
2023-02-22T11:30:24.092Z,16.44
2023-02-22T11:35:39.455Z,16.21
2023-02-22T11:40:42.397Z,16.45
2023-02-22T11:46:02.596Z,16.52
2023-02-22T11:51:27.879Z,16.33
2023-02-22T11:56:37.972Z,17.18
2023-02-22T12:01:47.785Z,17.44
2023-02-22T12:07:03.975Z,17.06
2023-02-22T12:12:17.307Z,17.26
2023-02-22T12:17:34.964Z,16.83
2023-02-22T12:22:45.365Z,17.10
2023-02-22T12:27:53.291Z,17.35
2023-02-22T12:32:59.679Z,17.38
2023-02-22T12:38:12.171Z,17.22
2023-02-22T12:43:22.447Z,16.85
2023-02-22T12:48:34.219Z,17.43
2023-02-22T12:53:42.144Z,17.17
2023-02-22T12:58:53.133Z,17.41
2023-02-22T13:03:56.798Z,17.52
2023-02-22T13:09:15.386Z,17.82
2023-02-22T13:14:34.429Z,18.30
2023-02-22T13:19:44.048Z,17.83
2023-02-22T13:25:03.536Z,17.09
2023-02-22T13:30:14.553Z,17.36
2023-02-22T13:35:35.087Z,17.37
2023-02-22T13:40:55.304Z,16.78
2023-02-22T13:46:14.194Z,16.38
2023-02-22T13:51:35.425Z,16.21
2023-02-22T13:56:43.793Z,16.02
2023-02-22T14:01:48.826Z,16.19
2023-02-22T14:06:51.828Z,16.44
2023-02-22T14:11:56.873Z,16.57
2023-02-22T14:17:25.126Z,16.59
2023-02-22T14:22:29.593Z,16.39
2023-02-22T14:27:42.455Z,16.07
2023-02-22T14:32:48.947Z,15.72
2023-02-22T14:37:56.469Z,15.22
2023-02-22T14:43:06.092Z,15.18
2023-02-22T14:48:20.299Z,14.93
2023-02-22T14:53:28.322Z,14.44
2023-02-22T14:58:38.782Z,14.58
2023-02-22T15:03:41.983Z,14.45
2023-02-22T15:08:49.145Z,14.55
2023-02-22T15:13:57.787Z,14.21
2023-02-22T15:19:06.655Z,14.11
2023-02-22T15:24:12.205Z,14.12
2023-02-22T15:29:20.116Z,13.99
2023-02-22T15:34:28.025Z,13.86
2023-02-22T15:39:34.469Z,13.76
2023-02-22T15:44:41.675Z,13.69
2023-02-22T15:49:44.625Z,13.57
2023-02-22T15:54:50.330Z,13.48
2023-02-22T15:59:58.975Z,13.33
2023-02-22T16:05:06.928Z,13.16
2023-02-22T16:10:25.360Z,13.08
2023-02-22T16:15:33.415Z,12.94
2023-02-22T16:20:36.624Z,12.77
2023-02-22T16:25:39.622Z,12.60
2023-02-22T16:30:43.829Z,12.39
2023-02-22T16:35:52.032Z,12.22
2023-02-22T16:40:57.975Z,12.05
2023-02-22T16:46:02.944Z,11.90
2023-02-22T16:51:14.921Z,11.76
2023-02-22T16:56:21.036Z,11.60
2023-02-22T17:01:25.229Z,11.49
2023-02-22T17:06:29.145Z,11.39
2023-02-22T17:11:32.035Z,11.34
2023-02-22T17:16:36.200Z,11.30
2023-02-22T17:21:40.184Z,11.26
2023-02-22T17:26:43.017Z,11.18
2023-02-22T17:31:48.820Z,11.07
2023-02-22T17:36:51.630Z,11.03
2023-02-22T17:41:57.561Z,11.02
2023-02-22T17:47:01.702Z,11.03
2023-02-22T17:52:06.250Z,11.02
2023-02-22T17:57:09.058Z,11.02
2023-02-22T18:02:13.234Z,10.98
2023-02-22T18:07:19.680Z,10.94
2023-02-22T18:12:22.438Z,10.79
2023-02-22T18:17:26.700Z,10.71
2023-02-22T18:22:29.513Z,10.72
2023-02-22T18:27:32.329Z,10.70
2023-02-22T18:32:36.489Z,10.73
2023-02-22T18:37:39.894Z,10.74
2023-02-22T18:42:42.640Z,10.76
2023-02-22T18:47:46.760Z,10.75
2023-02-22T18:52:49.536Z,10.68
2023-02-22T18:57:52.287Z,10.64
2023-02-22T19:02:57.710Z,10.65
2023-02-22T19:08:00.874Z,10.66
2023-02-22T19:13:03.659Z,10.74
2023-02-22T19:18:07.809Z,10.71
2023-02-22T19:23:11.119Z,10.71
2023-02-22T19:28:15.560Z,10.61
2023-02-22T19:33:19.718Z,10.56
2023-02-22T19:38:22.464Z,10.43
2023-02-22T19:43:25.217Z,10.38
2023-02-22T19:48:29.345Z,10.33
2023-02-22T19:53:32.128Z,10.20
2023-02-22T19:58:36.654Z,10.13
2023-02-22T20:03:42.087Z,10.07
2023-02-22T20:08:44.997Z,10.00
2023-02-22T20:13:47.970Z,9.95
2023-02-22T20:18:52.418Z,9.88
2023-02-22T20:23:57.128Z,9.82
2023-02-22T20:29:00.689Z,9.77
2023-02-22T20:34:06.262Z,9.72
2023-02-22T20:39:13.206Z,9.61
2023-02-22T20:44:17.894Z,9.66
2023-02-22T20:49:22.167Z,9.71
2023-02-22T20:54:24.951Z,9.61
2023-02-22T20:59:28.997Z,9.51
2023-02-22T21:04:33.993Z,9.69
2023-02-22T21:09:38.250Z,9.59
2023-02-22T21:14:43.623Z,9.66
2023-02-22T21:19:47.947Z,9.67
2023-02-22T21:24:50.715Z,9.70
2023-02-22T21:29:57.711Z,9.64
2023-02-22T21:35:01.930Z,9.68
2023-02-22T21:40:10.264Z,9.62
2023-02-22T21:45:13.620Z,9.57
2023-02-22T21:50:20.231Z,9.46
2023-02-22T21:55:23.603Z,9.42
2023-02-22T22:00:30.849Z,9.41
2023-02-22T22:05:35.636Z,9.44
2023-02-22T22:10:39.106Z,9.42
2023-02-22T22:15:43.005Z,9.36
2023-02-22T22:20:51.562Z,9.17
2023-02-22T22:26:02.990Z,8.90
2023-02-22T22:31:06.102Z,8.75
2023-02-22T22:36:11.768Z,8.75
2023-02-22T22:41:16.153Z,8.70
2023-02-22T22:46:19.583Z,8.73
2023-02-22T22:51:23.743Z,8.77
2023-02-22T22:56:28.990Z,8.55
2023-02-22T23:01:34.271Z,8.21
2023-02-22T23:06:41.278Z,8.21
2023-02-22T23:11:45.979Z,8.08
2023-02-22T23:16:49.402Z,8.18
2023-02-22T23:21:55.883Z,8.33
2023-02-22T23:27:00.095Z,7.88
2023-02-22T23:32:05.625Z,8.11
2023-02-22T23:37:10.543Z,8.20
2023-02-22T23:42:16.678Z,8.32
2023-02-22T23:47:19.690Z,8.30
2023-02-22T23:52:24.815Z,8.09
2023-02-22T23:57:27.592Z,8.04
